Temple, OK (73568)

1:42 PM CST on December 03, 2016 (GMT -0600)
Musgrove Edition Walters, OK | | Change Station

Elev 1079 ft 34.36 °N, 98.35 °W | Updated 14 minutes ago

Overcast
Overcast
45.5 °F
Feels Like 41 °F
N
8.9
Wind Variable Wind from ENE

Today
High -- | Low -- °F
--% Chance of Precip.
Yesterday
High -- | Low -- °F
Precip. -- in
Pressure 30.05 in
Visibility -9999.0 miles
Clouds Mostly Cloudy 900 ft
Overcast 1500 ft
Windchill 41 °F
Dew Point 42 °F
Humidity 87%
Rainfall 0.42 in
Snow Depth Not available.
7:23 AM 5:22 PM
Waxing Crescent, 16% visible
METAR KDUC 031935Z AUTO 08010KT BKN009 OVC015 07/07 A3005 RMK AO2 PWINO TSNO
Pressure 30.05 in
Visibility -9999.0 miles
Clouds Mostly Cloudy 900 ft
Overcast 1500 ft
Windchill 41 °F
Dew Point 42 °F
Humidity 87%
Rainfall 0.42 in
Snow Depth Not available.
7:23 AM 5:22 PM
Waxing Crescent, 16% visible
METAR KDUC 031935Z AUTO 08010KT BKN009 OVC015 07/07 A3005 RMK AO2 PWINO TSNO

10-Day Weather Forecast

Almanac

Astronomy

Dec. 03, 2016 Rise Set
Actual Time
Civil Twilight
Nautical Twilight
Astronomical Twilight
Moon
Length of Visible Light
Length of Day
Tomorrow will be .
, % of the Moon is Illuminated

Today's Extremes

State Highs State Lows

Community

WunderPhotos

Upload Photos

1,955,481 photos uploaded!

WunderBlog® & News

Nearby

Air Quality

  Air Quality AQ Index Pollutant
Not available.

Snow Depth

Station Depth Elevation

Earthquake Activity

City Distance Mag. Time & Date
Minimum magnitude displayed is 2.5.

Coastal Water Temperatures

Place Temperature

Stations

Nearby Weather Stations

Station Location Temp. Windchill Dew Point Humidity Wind Precip. Elev Updated Type
                   

Watches & Warnings

There are currently no watches in effect.